createdAt,value
2022-08-18T00:01:14.456Z,23.4
2022-08-18T00:08:04.580Z,23.4
2022-08-18T00:13:07.052Z,23.4
2022-08-18T00:18:52.425Z,23.3
2022-08-18T00:24:51.338Z,23.3
2022-08-18T00:30:31.753Z,23.3
2022-08-18T00:36:14.256Z,23.3
2022-08-18T00:42:05.076Z,23.3
2022-08-18T00:48:16.231Z,23.3
2022-08-18T00:53:58.111Z,23.3
2022-08-18T00:59:46.820Z,23.3
2022-08-18T01:05:26.593Z,23.3
2022-08-18T01:11:05.124Z,23.3
2022-08-18T01:17:30.879Z,23.3
2022-08-18T01:23:07.079Z,23.3
2022-08-18T01:28:34.186Z,23.3
2022-08-18T01:34:25.363Z,23.3
2022-08-18T01:42:18.129Z,23.3
2022-08-18T01:48:15.562Z,23.3
2022-08-18T01:53:53.893Z,23.3
2022-08-18T01:59:21.271Z,23.3
2022-08-18T02:05:59.350Z,23.3
2022-08-18T02:11:59.226Z,23.3
2022-08-18T02:17:39.751Z,23.3
2022-08-18T02:23:19.598Z,23.3
2022-08-18T02:29:04.303Z,23.3
2022-08-18T02:34:42.602Z,23.3
2022-08-18T02:40:23.747Z,23.3
2022-08-18T02:45:35.444Z,23.3
2022-08-18T02:51:26.513Z,23.3
2022-08-18T02:57:15.687Z,23.3
2022-08-18T03:02:53.461Z,23.3
2022-08-18T03:08:33.913Z,23.3
2022-08-18T03:14:45.381Z,23.3
2022-08-18T03:20:36.245Z,23.3
2022-08-18T03:27:09.163Z,23.3
2022-08-18T03:32:41.570Z,23.3
2022-08-18T03:38:21.735Z,23.3
2022-08-18T03:44:58.257Z,23.3
2022-08-18T03:50:40.067Z,23.3
2022-08-18T03:56:17.690Z,23.3
2022-08-18T04:02:01.088Z,23.3
2022-08-18T04:07:54.255Z,23.3
2022-08-18T04:13:41.761Z,23.3
2022-08-18T04:19:45.533Z,23.3
2022-08-18T04:25:41.612Z,23.3
2022-08-18T04:31:27.781Z,23.3
2022-08-18T04:36:55.155Z,23.3
2022-08-18T04:42:40.203Z,23.3
2022-08-18T04:48:22.794Z,23.3
2022-08-18T04:55:22.376Z,23.3
2022-08-18T05:00:58.113Z,23.3
2022-08-18T05:06:36.154Z,23.3
2022-08-18T05:12:14.751Z,23.3
2022-08-18T05:18:37.004Z,23.3
2022-08-18T05:24:34.330Z,23.3
2022-08-18T05:30:36.315Z,23.2
2022-08-18T05:36:41.117Z,23.3
2022-08-18T05:42:25.637Z,23.3
2022-08-18T05:48:02.959Z,23.3
2022-08-18T05:53:52.277Z,23.2
2022-08-18T05:59:30.682Z,23.2
2022-08-18T06:05:11.566Z,23.3
2022-08-18T06:10:53.676Z,23.3
2022-08-18T06:16:33.992Z,23.2
2022-08-18T06:22:15.322Z,23.3
2022-08-18T06:28:00.254Z,23.2
2022-08-18T06:33:42.693Z,23.3
2022-08-18T06:39:36.145Z,23.3
2022-08-18T06:45:53.056Z,23.3
2022-08-18T06:51:40.203Z,23.2
2022-08-18T06:57:51.062Z,23.2
2022-08-18T07:03:31.195Z,23.3
2022-08-18T07:09:20.100Z,23.3
2022-08-18T07:15:06.485Z,23.3
2022-08-18T07:21:27.460Z,23.2
2022-08-18T07:27:25.715Z,23.3
2022-08-18T07:33:13.989Z,23.3
2022-08-18T07:39:18.118Z,23.3
2022-08-18T07:45:24.183Z,23.3
2022-08-18T07:52:53.985Z,23.3
2022-08-18T07:59:23.240Z,23.3
2022-08-18T08:05:52.932Z,23.3
2022-08-18T08:12:05.623Z,23.3
2022-08-18T08:18:30.078Z,23.3
2022-08-18T08:24:56.135Z,23.3
2022-08-18T08:30:53.582Z,23.3
2022-08-18T08:37:30.168Z,23.3
2022-08-18T08:43:56.326Z,23.3
2022-08-18T08:49:45.954Z,23.3
2022-08-18T08:55:43.237Z,23.3
2022-08-18T09:01:25.745Z,23.3
2022-08-18T09:07:41.912Z,23.3
2022-08-18T09:13:18.354Z,23.3
2022-08-18T09:19:01.193Z,23.3
2022-08-18T09:24:42.360Z,23.3
2022-08-18T09:30:43.524Z,23.3
2022-08-18T13:12:00.095Z,23.4
2022-08-18T13:18:46.129Z,23.4
2022-08-18T13:24:56.003Z,23.4
2022-08-18T13:32:12.911Z,23.4
2022-08-18T13:38:54.640Z,23.4
2022-08-18T13:45:43.154Z,23.5
2022-08-18T13:51:26.986Z,23.5
2022-08-18T13:58:09.701Z,23.5
2022-08-18T14:05:04.718Z,23.5
2022-08-18T14:11:43.207Z,23.5
2022-08-18T14:17:44.124Z,23.5
2022-08-18T14:23:51.576Z,23.6
2022-08-18T14:30:20.950Z,23.6
2022-08-18T14:37:43.774Z,23.5
2022-08-18T14:44:31.907Z,23.5
2022-08-18T14:51:27.434Z,23.5
2022-08-18T14:57:30.322Z,23.5
2022-08-18T15:03:31.345Z,23.6
2022-08-18T15:10:33.840Z,23.6
2022-08-18T15:17:11.691Z,23.6
2022-08-18T15:24:20.680Z,23.6
2022-08-18T15:38:01.164Z,23.6
2022-08-18T15:44:38.208Z,23.6
2022-08-18T15:51:11.983Z,23.7
2022-08-18T15:57:57.940Z,23.7
2022-08-18T16:04:39.198Z,23.8
2022-08-18T16:10:44.317Z,23.8
2022-08-18T16:16:52.885Z,23.8
2022-08-18T16:22:48.510Z,23.8
2022-08-18T16:28:32.022Z,23.8
2022-08-18T16:34:14.105Z,23.8
2022-08-18T16:40:01.080Z,23.8
2022-08-18T16:45:40.348Z,23.8
2022-08-18T16:51:25.688Z,23.8
2022-08-18T16:57:18.737Z,23.8
2022-08-18T17:03:46.727Z,23.8
2022-08-18T17:09:43.807Z,23.8
2022-08-18T17:15:27.818Z,23.8
2022-08-18T17:21:09.433Z,23.8
2022-08-18T17:27:25.864Z,23.9
2022-08-18T17:33:22.391Z,23.9
2022-08-18T17:39:06.493Z,23.8
2022-08-18T17:45:04.228Z,23.9
2022-08-18T17:51:02.295Z,23.9
2022-08-18T17:56:53.156Z,23.8
2022-08-18T18:03:20.253Z,23.9
2022-08-18T18:09:03.230Z,23.9
2022-08-18T18:15:12.706Z,23.9
2022-08-18T18:20:57.237Z,23.9
2022-08-18T18:27:14.544Z,23.9
2022-08-18T18:32:59.007Z,23.9
2022-08-18T18:38:25.179Z,23.9
2022-08-18T18:44:10.290Z,23.9
2022-08-18T18:50:32.817Z,23.9
2022-08-18T18:56:21.302Z,23.9
2022-08-18T19:02:13.564Z,23.9
2022-08-18T19:08:12.678Z,23.9
2022-08-18T19:14:12.616Z,23.9
2022-08-18T19:22:19.476Z,23.9
2022-08-18T19:28:22.347Z,23.9
2022-08-18T19:35:13.404Z,23.9
2022-08-18T19:41:30.994Z,23.9
2022-08-18T19:47:34.574Z,23.8
2022-08-18T19:53:36.543Z,23.8
2022-08-18T19:59:30.890Z,23.9
2022-08-18T20:05:01.274Z,23.9
2022-08-18T20:11:13.675Z,23.9
2022-08-18T20:17:17.848Z,23.8
2022-08-18T20:22:58.497Z,23.8
2022-08-18T20:28:42.482Z,23.9
2022-08-18T20:34:19.488Z,23.9
2022-08-18T20:40:02.378Z,23.8
2022-08-18T20:46:00.077Z,23.8
2022-08-18T20:51:42.259Z,23.9
2022-08-18T20:58:15.057Z,23.8
2022-08-18T21:04:02.745Z,23.8
2022-08-18T21:10:12.619Z,23.8
2022-08-18T21:16:02.350Z,23.8
2022-08-18T21:21:44.648Z,23.8
2022-08-18T21:27:21.047Z,23.8
2022-08-18T21:33:40.176Z,23.8
2022-08-18T21:39:23.479Z,23.8
2022-08-18T21:44:45.302Z,23.8
2022-08-18T21:50:14.949Z,23.8
2022-08-18T21:55:52.725Z,23.8
2022-08-18T22:01:37.607Z,23.8
2022-08-18T22:07:43.240Z,23.8
2022-08-18T22:13:58.588Z,23.8
2022-08-18T22:19:45.791Z,23.8
2022-08-18T22:25:10.451Z,23.8
2022-08-18T22:30:53.397Z,23.8
2022-08-18T22:36:30.727Z,23.8
2022-08-18T22:42:11.136Z,23.8
2022-08-18T22:47:42.679Z,23.8
2022-08-18T22:53:20.801Z,23.8
2022-08-18T22:59:49.569Z,23.8
2022-08-18T23:05:12.186Z,23.8
2022-08-18T23:10:58.338Z,23.8
2022-08-18T23:16:48.930Z,23.8
2022-08-18T23:22:24.992Z,23.8
2022-08-18T23:28:08.456Z,23.8
2022-08-18T23:33:56.044Z,23.8
2022-08-18T23:39:39.651Z,23.8
2022-08-18T23:45:20.345Z,23.8
2022-08-18T23:51:01.885Z,23.8
2022-08-18T23:56:42.316Z,23.8
